createdAt,value
2023-02-22T00:01:53.238Z,22.20
2023-02-22T00:04:25.044Z,22.18
2023-02-22T00:07:02.072Z,22.16
2023-02-22T00:09:34.753Z,22.14
2023-02-22T00:12:05.346Z,22.13
2023-02-22T00:14:35.447Z,22.11
2023-02-22T00:17:05.972Z,22.08
2023-02-22T00:19:36.306Z,22.08
2023-02-22T00:22:07.445Z,22.06
2023-02-22T00:24:39.390Z,22.04
2023-02-22T00:27:10.619Z,22.02
2023-02-22T00:29:41.515Z,22.02
2023-02-22T00:32:12.132Z,22.01
2023-02-22T00:34:44.125Z,22.00
2023-02-22T00:37:16.339Z,21.98
2023-02-22T00:39:51.086Z,21.98
2023-02-22T00:42:22.555Z,21.96
2023-02-22T00:44:53.178Z,21.96
2023-02-22T00:47:23.742Z,21.94
2023-02-22T00:49:54.387Z,21.93
2023-02-22T00:52:25.519Z,21.92
2023-02-22T00:54:58.287Z,21.91
2023-02-22T00:57:28.439Z,21.89
2023-02-22T00:59:59.228Z,21.88
2023-02-22T01:02:29.866Z,21.87
2023-02-22T01:05:00.458Z,21.85
2023-02-22T01:07:30.572Z,21.84
2023-02-22T01:10:02.813Z,21.83
2023-02-22T01:12:33.476Z,21.82
2023-02-22T01:15:04.988Z,21.81
2023-02-22T01:17:35.737Z,21.79
2023-02-22T01:20:13.006Z,21.79
2023-02-22T01:22:43.526Z,21.77
2023-02-22T01:25:21.678Z,21.77
2023-02-22T01:27:53.886Z,21.75
2023-02-22T01:30:26.735Z,21.76
2023-02-22T01:33:00.134Z,21.74
2023-02-22T01:35:34.144Z,21.74
2023-02-22T01:38:04.704Z,21.73
2023-02-22T01:40:40.596Z,21.72
2023-02-22T01:43:27.761Z,21.71
2023-02-22T01:46:03.822Z,21.70
2023-02-22T01:48:45.258Z,21.68
2023-02-22T01:51:20.489Z,21.67
2023-02-22T01:53:56.560Z,21.65
2023-02-22T01:56:32.836Z,21.64
2023-02-22T01:59:09.968Z,21.62
2023-02-22T02:01:45.077Z,21.62
2023-02-22T02:04:21.825Z,21.61
2023-02-22T02:06:53.423Z,21.59
2023-02-22T02:09:35.012Z,21.58
2023-02-22T02:12:11.503Z,21.56
2023-02-22T02:14:44.503Z,21.56
2023-02-22T02:17:19.891Z,21.55
2023-02-22T02:20:12.072Z,21.54
2023-02-22T02:22:54.382Z,21.52
2023-02-22T02:26:15.423Z,21.51
2023-02-22T02:29:41.348Z,21.48
2023-02-22T02:32:39.228Z,21.47
2023-02-22T02:35:22.587Z,21.47
2023-02-22T02:38:04.684Z,21.45
2023-02-22T02:40:43.859Z,21.46
2023-02-22T02:43:26.928Z,21.44
2023-02-22T02:46:07.220Z,21.43
2023-02-22T02:48:46.130Z,21.42
2023-02-22T02:51:18.900Z,21.41
2023-02-22T02:53:54.081Z,21.41
2023-02-22T02:56:24.821Z,21.40
2023-02-22T02:58:56.178Z,21.40
2023-02-22T03:01:53.235Z,21.39
2023-02-22T03:07:28.876Z,21.36
2023-02-22T03:10:35.181Z,21.35
2023-02-22T03:13:16.747Z,21.33
2023-02-22T03:16:04.299Z,21.32
2023-02-22T03:18:52.221Z,21.31
2023-02-22T03:21:34.231Z,21.30
2023-02-22T03:24:15.251Z,21.30
2023-02-22T03:26:53.039Z,21.28
2023-02-22T03:29:28.794Z,21.27
2023-02-22T03:32:02.460Z,21.26
2023-02-22T03:34:41.329Z,21.24
2023-02-22T03:37:20.464Z,21.24
2023-02-22T03:39:55.936Z,21.23
2023-02-22T03:42:34.455Z,21.22
2023-02-22T03:45:10.589Z,21.21
2023-02-22T03:47:46.787Z,21.21
2023-02-22T03:50:23.369Z,21.19
2023-02-22T03:52:56.509Z,21.18
2023-02-22T03:55:29.428Z,21.17
2023-02-22T03:58:05.195Z,21.16
2023-02-22T04:00:50.812Z,21.14
2023-02-22T04:03:25.843Z,21.12
2023-02-22T04:05:56.048Z,21.11
2023-02-22T04:08:28.158Z,21.10
2023-02-22T04:10:59.070Z,21.09
2023-02-22T04:13:30.467Z,21.08
2023-02-22T04:16:07.236Z,21.07
2023-02-22T04:18:37.731Z,21.05
2023-02-22T04:21:09.652Z,21.05
2023-02-22T04:23:43.915Z,21.05
2023-02-22T04:26:14.921Z,21.03
2023-02-22T04:28:44.850Z,21.03
2023-02-22T04:31:15.572Z,21.02
2023-02-22T04:33:46.902Z,21.01
2023-02-22T04:36:17.779Z,21.01
2023-02-22T04:38:50.990Z,21.02
2023-02-22T04:41:25.040Z,21.01
2023-02-22T04:43:59.425Z,21.01
2023-02-22T04:46:30.330Z,21.01
2023-02-22T04:49:00.767Z,21.00
2023-02-22T04:51:31.325Z,21.01
2023-02-22T04:54:03.868Z,21.03
2023-02-22T04:59:18.121Z,21.08
2023-02-22T05:02:08.272Z,21.13
2023-02-22T05:04:40.189Z,21.18
2023-02-22T05:07:10.697Z,21.24
2023-02-22T05:09:42.373Z,21.32
2023-02-22T05:12:12.768Z,21.41
2023-02-22T05:14:43.759Z,21.50
2023-02-22T05:17:18.414Z,21.60
2023-02-22T05:19:52.469Z,21.71
2023-02-22T05:22:22.912Z,21.82
2023-02-22T05:25:08.515Z,21.95
2023-02-22T05:27:38.741Z,22.08
2023-02-22T05:30:10.550Z,22.19
2023-02-22T05:32:41.141Z,22.29
2023-02-22T05:35:11.850Z,22.40
2023-02-22T05:37:43.112Z,22.50
2023-02-22T05:40:18.591Z,22.61
2023-02-22T05:42:49.104Z,22.73
2023-02-22T05:48:07.755Z,23.00
2023-02-22T05:50:38.620Z,23.14
2023-02-22T05:53:08.990Z,23.29
2023-02-22T05:55:40.819Z,23.42
2023-02-22T05:58:11.361Z,23.54
2023-02-22T06:00:41.978Z,23.65
2023-02-22T06:03:14.202Z,23.76
2023-02-22T06:05:45.486Z,23.88
2023-02-22T06:08:24.633Z,23.99
2023-02-22T06:10:57.523Z,24.10
2023-02-22T06:13:27.922Z,24.18
2023-02-22T06:15:59.535Z,24.30
2023-02-22T06:18:31.528Z,24.41
2023-02-22T06:21:03.159Z,24.51
2023-02-22T06:23:33.884Z,24.60
2023-02-22T06:26:10.068Z,24.69
2023-02-22T06:28:40.143Z,24.77
2023-02-22T06:31:10.719Z,24.85
2023-02-22T06:33:54.156Z,24.96
2023-02-22T06:36:24.605Z,25.06
2023-02-22T06:38:55.113Z,25.17
2023-02-22T06:41:26.468Z,25.27
2023-02-22T06:43:56.993Z,25.38
2023-02-22T06:46:27.540Z,25.49
2023-02-22T06:48:59.994Z,25.60
2023-02-22T06:51:31.544Z,25.70
2023-02-22T06:54:15.002Z,25.78
2023-02-22T06:56:48.126Z,25.89
2023-02-22T06:59:18.723Z,25.98
2023-02-22T07:01:48.817Z,26.06
2023-02-22T07:04:19.259Z,26.16
2023-02-22T07:06:50.509Z,26.24
2023-02-22T07:09:22.105Z,26.31
2023-02-22T07:11:54.582Z,26.38
2023-02-22T07:14:24.425Z,26.46
2023-02-22T07:16:55.105Z,26.55
2023-02-22T07:19:25.614Z,26.64
2023-02-22T07:22:11.452Z,26.70
2023-02-22T07:24:41.777Z,26.76
2023-02-22T07:27:14.402Z,26.84
2023-02-22T07:29:47.178Z,26.91
2023-02-22T07:32:17.957Z,26.98
2023-02-22T07:34:48.521Z,27.07
2023-02-22T07:37:18.500Z,27.13
2023-02-22T07:39:49.753Z,27.22
2023-02-22T07:45:06.588Z,27.35
2023-02-22T07:47:37.131Z,27.42
2023-02-22T07:50:08.333Z,27.50
2023-02-22T07:52:40.942Z,27.57
2023-02-22T07:55:14.115Z,27.61
2023-02-22T07:57:47.816Z,27.66
2023-02-22T08:00:24.598Z,27.71
2023-02-22T08:02:57.334Z,27.76
2023-02-22T08:05:30.601Z,27.83
2023-02-22T08:08:01.490Z,27.89
2023-02-22T08:10:33.505Z,27.96
2023-02-22T08:13:07.595Z,28.03
2023-02-22T08:15:41.121Z,28.06
2023-02-22T08:18:15.005Z,28.11
2023-02-22T08:20:50.830Z,28.15
2023-02-22T08:23:32.210Z,28.20
2023-02-22T08:26:09.568Z,28.27
2023-02-22T08:28:55.098Z,28.30
2023-02-22T08:31:25.882Z,28.35
2023-02-22T08:33:57.607Z,28.39
2023-02-22T08:36:29.852Z,28.44
2023-02-22T08:39:00.678Z,28.48
2023-02-22T08:41:31.069Z,28.53
2023-02-22T08:44:03.395Z,28.57
2023-02-22T08:46:33.912Z,28.60
2023-02-22T08:49:05.061Z,28.63
2023-02-22T08:51:40.984Z,28.67
2023-02-22T08:54:11.809Z,28.70
2023-02-22T08:59:27.728Z,28.72
2023-02-22T09:02:00.585Z,28.74
2023-02-22T09:04:31.107Z,28.72
2023-02-22T09:07:01.683Z,28.70
2023-02-22T09:09:45.198Z,28.68
2023-02-22T09:12:19.481Z,28.66
2023-02-22T09:14:51.120Z,28.62
2023-02-22T09:17:21.707Z,28.58
2023-02-22T09:19:51.801Z,28.56
2023-02-22T09:22:22.284Z,28.52
2023-02-22T09:24:58.412Z,28.51
2023-02-22T09:27:30.331Z,28.46
2023-02-22T09:30:03.896Z,28.40
2023-02-22T09:32:34.543Z,28.36
2023-02-22T09:35:05.315Z,28.33
2023-02-22T09:37:35.977Z,28.27
2023-02-22T09:40:10.343Z,28.20
2023-02-22T09:42:51.453Z,28.13
2023-02-22T09:45:37.725Z,28.08
2023-02-22T09:48:21.821Z,28.03
2023-02-22T09:51:00.545Z,27.99
2023-02-22T09:53:52.743Z,27.97
2023-02-22T09:56:25.251Z,27.93
2023-02-22T09:59:01.397Z,27.89
2023-02-22T10:01:39.575Z,27.83
2023-02-22T10:04:22.507Z,27.78
2023-02-22T10:07:08.456Z,27.73
2023-02-22T10:12:36.487Z,27.63
2023-02-22T10:15:51.943Z,27.59
2023-02-22T10:19:17.661Z,27.52
2023-02-22T10:22:20.475Z,27.48
2023-02-22T10:25:05.230Z,27.45
2023-02-22T10:27:43.323Z,27.41
2023-02-22T10:30:25.765Z,27.57
2023-02-22T10:33:07.851Z,27.45
2023-02-22T10:35:44.818Z,27.35
2023-02-22T10:38:23.981Z,27.27
2023-02-22T10:41:00.549Z,27.22
2023-02-22T10:43:31.740Z,27.16
2023-02-22T10:46:07.697Z,27.11
2023-02-22T10:48:42.743Z,27.07
2023-02-22T10:51:15.514Z,27.02
2023-02-22T10:53:47.113Z,26.97
2023-02-22T10:56:22.395Z,26.95
2023-02-22T10:59:00.235Z,26.90
2023-02-22T11:01:41.150Z,26.86
2023-02-22T11:04:20.887Z,26.82
2023-02-22T11:07:11.274Z,26.76
2023-02-22T11:09:55.176Z,26.70
2023-02-22T11:12:33.569Z,26.62
2023-02-22T11:15:31.794Z,26.57
2023-02-22T11:18:02.349Z,26.52
2023-02-22T11:20:39.961Z,26.48
2023-02-22T11:23:12.903Z,26.44
2023-02-22T11:25:45.955Z,26.40
2023-02-22T11:28:43.225Z,26.35
2023-02-22T11:31:20.751Z,26.30
2023-02-22T11:36:47.280Z,26.23
2023-02-22T11:39:29.991Z,26.21
2023-02-22T11:42:00.881Z,26.16
2023-02-22T11:44:33.691Z,26.12
2023-02-22T11:47:07.467Z,26.10
2023-02-22T11:52:35.310Z,26.04
2023-02-22T11:55:32.935Z,26.01
2023-02-22T11:58:48.157Z,25.98
2023-02-22T12:01:34.120Z,25.95
2023-02-22T12:04:52.338Z,25.91
2023-02-22T12:07:45.017Z,25.88
2023-02-22T12:10:44.864Z,25.85
2023-02-22T12:14:06.035Z,25.82
2023-02-22T12:16:55.128Z,25.79
2023-02-22T12:19:36.638Z,25.77
2023-02-22T12:22:13.103Z,25.75
2023-02-22T12:24:57.953Z,25.74
2023-02-22T12:27:45.091Z,25.73
2023-02-22T12:30:24.042Z,25.71
2023-02-22T12:32:59.537Z,25.69
2023-02-22T12:35:36.113Z,25.66
2023-02-22T12:38:15.291Z,25.65
2023-02-22T12:40:57.652Z,25.64
2023-02-22T12:43:36.739Z,25.62
2023-02-22T12:46:13.917Z,25.61
2023-02-22T12:48:54.909Z,25.61
2023-02-22T12:51:41.570Z,25.60
2023-02-22T12:54:23.697Z,25.60
2023-02-22T12:57:01.878Z,25.59
2023-02-22T12:59:41.531Z,25.58
2023-02-22T13:02:23.495Z,25.57
2023-02-22T13:04:54.161Z,25.56
2023-02-22T13:07:48.005Z,25.54
2023-02-22T13:10:46.403Z,25.50
2023-02-22T13:13:26.820Z,25.49
2023-02-22T13:16:10.475Z,25.48
2023-02-22T13:18:51.786Z,25.45
2023-02-22T13:21:34.422Z,25.44
2023-02-22T13:24:17.349Z,25.41
2023-02-22T13:26:56.822Z,25.38
2023-02-22T13:29:34.649Z,25.36
2023-02-22T13:32:52.816Z,25.33
2023-02-22T13:35:58.553Z,25.29
2023-02-22T13:39:16.360Z,25.27
2023-02-22T13:42:10.629Z,25.24
2023-02-22T13:45:31.363Z,25.22
2023-02-22T13:48:30.689Z,25.19
2023-02-22T13:51:18.176Z,25.18
2023-02-22T13:53:59.778Z,25.17
2023-02-22T13:56:32.137Z,25.15
2023-02-22T13:59:06.245Z,25.14
2023-02-22T14:01:49.377Z,25.13
2023-02-22T14:04:47.323Z,25.10
2023-02-22T14:07:57.322Z,25.08
2023-02-22T14:10:52.577Z,25.06
2023-02-22T14:13:27.228Z,25.06
2023-02-22T14:16:29.773Z,25.05
2023-02-22T14:19:18.714Z,25.05
2023-02-22T14:22:04.319Z,25.05
2023-02-22T14:24:48.138Z,25.03
2023-02-22T14:27:20.413Z,25.01
2023-02-22T14:30:00.826Z,25.03
2023-02-22T14:32:36.240Z,25.02
2023-02-22T14:35:26.526Z,25.01
2023-02-22T14:38:05.229Z,25.00
2023-02-22T14:40:40.679Z,24.99
2023-02-22T14:43:20.317Z,24.98
2023-02-22T14:45:56.378Z,24.96
2023-02-22T14:48:39.829Z,24.96
2023-02-22T14:51:22.360Z,24.94
2023-02-22T14:54:05.216Z,24.93
2023-02-22T14:56:48.028Z,24.92
2023-02-22T14:59:24.792Z,24.91
2023-02-22T15:02:11.666Z,24.90
2023-02-22T15:04:44.348Z,24.89
2023-02-22T15:07:36.151Z,24.86
2023-02-22T15:10:23.144Z,24.87
2023-02-22T15:13:11.132Z,24.84
2023-02-22T15:15:48.842Z,24.82
2023-02-22T15:18:30.564Z,24.81
2023-02-22T15:21:08.162Z,24.79
2023-02-22T15:23:50.004Z,24.78
2023-02-22T15:26:29.634Z,24.76
2023-02-22T15:29:02.429Z,24.75
2023-02-22T15:31:36.633Z,24.74
2023-02-22T15:34:24.693Z,24.72
2023-02-22T15:36:58.172Z,24.72
2023-02-22T15:39:33.465Z,24.70
2023-02-22T15:42:19.836Z,24.68
2023-02-22T15:44:54.328Z,24.67
2023-02-22T15:47:29.629Z,24.66
2023-02-22T15:50:24.329Z,24.64
2023-02-22T15:53:00.105Z,24.61
2023-02-22T15:55:35.043Z,24.60
2023-02-22T15:58:29.170Z,24.61
2023-02-22T16:01:05.379Z,24.58
2023-02-22T16:03:45.364Z,24.58
2023-02-22T16:06:30.986Z,24.55
2023-02-22T16:09:09.859Z,24.54
2023-02-22T16:11:44.670Z,24.52
2023-02-22T16:14:46.370Z,24.51
2023-02-22T16:17:32.693Z,24.48
2023-02-22T16:20:05.789Z,24.47
2023-02-22T16:22:38.560Z,24.45
2023-02-22T16:25:27.959Z,24.45
2023-02-22T16:28:06.650Z,24.44
2023-02-22T16:30:41.785Z,24.42
2023-02-22T16:33:17.082Z,24.41
2023-02-22T16:35:52.492Z,24.41
2023-02-22T16:38:24.459Z,24.40
2023-02-22T16:40:58.917Z,24.40
2023-02-22T16:43:33.802Z,24.39
2023-02-22T16:46:07.538Z,24.38
2023-02-22T16:48:39.268Z,24.37
2023-02-22T16:51:22.021Z,24.35
2023-02-22T16:53:55.709Z,24.34
2023-02-22T16:56:33.011Z,24.33
2023-02-22T16:59:09.294Z,24.32
2023-02-22T17:01:42.104Z,24.31
2023-02-22T17:04:21.826Z,24.29
2023-02-22T17:07:05.149Z,24.28
2023-02-22T17:09:36.324Z,24.27
2023-02-22T17:12:07.831Z,24.26
2023-02-22T17:14:41.377Z,24.25
2023-02-22T17:17:19.298Z,24.25
2023-02-22T17:19:49.547Z,24.22
2023-02-22T17:22:24.726Z,24.21
2023-02-22T17:24:54.973Z,24.20
2023-02-22T17:27:25.337Z,24.19
2023-02-22T17:29:56.438Z,24.18
2023-02-22T17:32:29.459Z,24.16
2023-02-22T17:35:06.893Z,24.15
2023-02-22T17:37:37.837Z,24.13
2023-02-22T17:40:09.621Z,24.13
2023-02-22T17:42:40.480Z,24.11
2023-02-22T17:45:14.330Z,24.10
2023-02-22T17:47:47.289Z,24.10
2023-02-22T17:50:18.053Z,24.07
2023-02-22T17:52:48.600Z,24.07
2023-02-22T17:55:19.399Z,24.06
2023-02-22T17:57:57.402Z,24.06
2023-02-22T18:00:35.572Z,24.05
2023-02-22T18:03:14.114Z,24.04
2023-02-22T18:05:46.860Z,24.03
2023-02-22T18:08:17.725Z,24.03
2023-02-22T18:10:53.277Z,24.02
2023-02-22T18:13:25.195Z,24.01
2023-02-22T18:15:57.863Z,24.00
2023-02-22T18:18:30.908Z,23.99
2023-02-22T18:21:01.856Z,23.99
2023-02-22T18:23:34.282Z,23.98
2023-02-22T18:26:12.479Z,23.97
2023-02-22T18:28:43.927Z,23.95
2023-02-22T18:31:17.227Z,23.96
2023-02-22T18:33:52.003Z,23.95
2023-02-22T18:36:26.171Z,23.94
2023-02-22T18:38:58.551Z,23.93
2023-02-22T18:41:30.293Z,23.93
2023-02-22T18:44:01.548Z,23.92
2023-02-22T18:46:32.358Z,23.92
2023-02-22T18:49:08.204Z,23.92
2023-02-22T18:51:40.515Z,23.91
2023-02-22T18:54:10.528Z,23.90
2023-02-22T18:56:41.886Z,23.90
2023-02-22T18:59:15.145Z,23.91
2023-02-22T19:01:49.564Z,23.89
2023-02-22T19:04:22.300Z,23.90
2023-02-22T19:06:52.929Z,23.88
2023-02-22T19:09:23.584Z,23.88
2023-02-22T19:11:55.096Z,23.87
2023-02-22T19:14:25.865Z,23.87
2023-02-22T19:17:01.832Z,23.86
2023-02-22T19:19:34.339Z,23.86
2023-02-22T19:22:05.208Z,23.84
2023-02-22T19:24:35.494Z,23.84
2023-02-22T19:27:06.932Z,23.82
2023-02-22T19:29:40.601Z,23.84
2023-02-22T19:32:13.195Z,23.82
2023-02-22T19:34:46.102Z,23.82
2023-02-22T19:37:19.141Z,23.80
2023-02-22T19:39:49.076Z,23.80
2023-02-22T19:42:19.744Z,23.79
2023-02-22T19:44:52.982Z,23.79
2023-02-22T19:47:24.100Z,23.77
2023-02-22T19:49:59.155Z,23.76
2023-02-22T19:52:31.362Z,23.75
2023-02-22T19:55:02.420Z,23.74
2023-02-22T19:57:33.621Z,23.73
2023-02-22T20:00:11.775Z,23.73
2023-02-22T20:02:44.286Z,23.71
2023-02-22T20:05:18.386Z,23.71
2023-02-22T20:07:48.656Z,23.70
2023-02-22T20:10:19.582Z,23.68
2023-02-22T20:12:50.120Z,23.69
2023-02-22T20:15:22.387Z,23.69
2023-02-22T20:17:53.676Z,23.69
2023-02-22T20:20:28.985Z,23.69
2023-02-22T20:23:00.794Z,23.69
2023-02-22T20:25:31.317Z,23.68
2023-02-22T20:28:02.177Z,23.68
2023-02-22T20:30:34.059Z,23.68
2023-02-22T20:33:05.408Z,23.67
2023-02-22T20:35:39.576Z,23.67
2023-02-22T20:38:12.005Z,23.66
2023-02-22T20:40:44.209Z,23.65
2023-02-22T20:43:14.271Z,23.64
2023-02-22T20:45:44.966Z,23.63
2023-02-22T20:48:15.248Z,23.61
2023-02-22T20:50:47.400Z,23.61
2023-02-22T20:53:18.183Z,23.60
2023-02-22T20:55:52.838Z,23.59
2023-02-22T20:58:23.393Z,23.58
2023-02-22T21:00:55.368Z,23.59
2023-02-22T21:03:26.035Z,23.58
2023-02-22T21:05:58.754Z,23.56
2023-02-22T21:08:33.196Z,23.56
2023-02-22T21:11:04.513Z,23.54
2023-02-22T21:13:35.216Z,23.52
2023-02-22T21:16:06.791Z,23.51
2023-02-22T21:18:37.673Z,23.50
2023-02-22T21:21:12.609Z,23.49
2023-02-22T21:23:44.136Z,23.46
2023-02-22T21:26:19.545Z,23.45
2023-02-22T21:28:51.499Z,23.41
2023-02-22T21:31:24.729Z,23.41
2023-02-22T21:33:58.111Z,23.38
2023-02-22T21:36:32.475Z,23.37
2023-02-22T21:39:08.926Z,23.36
2023-02-22T21:41:41.092Z,23.33
2023-02-22T21:44:11.980Z,23.32
2023-02-22T21:46:43.107Z,23.32
2023-02-22T21:49:14.163Z,23.31
2023-02-22T21:51:47.247Z,23.30
2023-02-22T21:54:17.683Z,23.29
2023-02-22T21:56:48.642Z,23.30
2023-02-22T21:59:23.001Z,23.29
2023-02-22T22:01:56.779Z,23.28
2023-02-22T22:04:31.615Z,23.27
2023-02-22T22:07:04.883Z,23.26
2023-02-22T22:09:42.285Z,23.26
2023-02-22T22:12:14.634Z,23.25
2023-02-22T22:14:46.284Z,23.25
2023-02-22T22:17:16.710Z,23.25
2023-02-22T22:19:49.476Z,23.24
2023-02-22T22:22:23.591Z,23.23
2023-02-22T22:24:55.448Z,23.23
2023-02-22T22:27:26.081Z,23.22
2023-02-22T22:29:57.731Z,23.22
2023-02-22T22:32:27.895Z,23.20
2023-02-22T22:34:59.953Z,23.20
2023-02-22T22:37:35.011Z,23.19
2023-02-22T22:40:07.102Z,23.17
2023-02-22T22:42:37.830Z,23.17
2023-02-22T22:45:12.266Z,23.16
2023-02-22T22:47:46.405Z,23.14
2023-02-22T22:50:19.875Z,23.12
2023-02-22T22:52:53.333Z,23.11
2023-02-22T22:55:25.397Z,23.09
2023-02-22T22:57:57.176Z,23.06
2023-02-22T23:00:32.188Z,23.04
2023-02-22T23:03:02.576Z,23.02
2023-02-22T23:05:33.114Z,23.01
2023-02-22T23:08:11.006Z,22.98
2023-02-22T23:10:43.828Z,22.98
2023-02-22T23:13:16.040Z,22.94
2023-02-22T23:15:49.047Z,22.94
2023-02-22T23:18:20.966Z,22.92
2023-02-22T23:20:55.628Z,22.91
2023-02-22T23:23:30.084Z,22.88
2023-02-22T23:26:11.979Z,22.87
2023-02-22T23:28:52.825Z,22.83
2023-02-22T23:31:23.534Z,22.80
2023-02-22T23:33:56.222Z,22.78
2023-02-22T23:36:27.753Z,22.77
2023-02-22T23:38:59.760Z,22.74
2023-02-22T23:41:30.500Z,22.73
2023-02-22T23:44:00.475Z,22.72
2023-02-22T23:46:33.745Z,22.71
2023-02-22T23:49:05.890Z,22.71
2023-02-22T23:51:39.718Z,22.70
2023-02-22T23:54:15.589Z,22.69
2023-02-22T23:56:50.700Z,22.69
2023-02-22T23:59:21.294Z,22.67
